Time;durP1;ratioP1;P1;durP2;ratioP2;P2;SDS_P1;SDS_P2;PMS_P1;PMS_P2;Temp;Humidity;BMP_temperature;BMP_pressure;BME280_temperature;BME280_humidity;BME280_pressure;Samples;Min_cycle;Max_cycle;Signal;HPM_P1;HPM_P2
2021/09/10 00:01:53;;;;;;;6.18;2.65;;;21.30;52.40;;;;;;5108433;28;20462;-64
2021/09/10 00:04:26;;;;;;;5.05;2.92;;;21.40;52.40;;;;;;5107276;28;20027;-72
2021/09/10 00:06:59;;;;;;;5.50;2.90;;;21.50;53.60;;;;;;5102015;28;20030;-74
2021/09/10 00:09:26;;;;;;;3.88;3.13;;;21.40;52.70;;;;;;5112814;28;20038;-68
2021/09/10 00:11:53;;;;;;;3.65;2.80;;;21.40;54.00;;;;;;5112988;28;20020;-70
2021/09/10 00:14:21;;;;;;;3.22;2.80;;;21.60;52.80;;;;;;5110803;28;20051;-68
2021/09/10 00:16:51;;;;;;;4.13;2.85;;;21.60;53.50;;;;;;5105011;28;20027;-64
2021/09/10 00:19:19;;;;;;;4.30;2.42;;;21.70;51.80;;;;;;5112857;28;20019;-63
2021/09/10 00:21:46;;;;;;;8.98;3.05;;;21.90;51.70;;;;;;5113206;28;20016;-68
2021/09/10 00:24:14;;;;;;;3.67;2.72;;;21.80;49.60;;;;;;5109424;28;20020;-68
2021/09/10 00:26:42;;;;;;;3.25;2.47;;;21.90;52.90;;;;;;5106209;28;20054;-70
2021/09/10 00:29:09;;;;;;;4.03;2.63;;;21.90;50.30;;;;;;5113177;28;20016;-68
2021/09/10 00:31:37;;;;;;;3.92;2.42;;;22.00;51.00;;;;;;5113900;28;20028;-63
2021/09/10 00:34:04;;;;;;;3.80;2.33;;;22.00;52.30;;;;;;5114821;28;20016;-59
2021/09/10 00:36:31;;;;;;;4.75;2.13;;;22.10;51.00;;;;;;5114147;28;20030;-64
2021/09/10 00:38:59;;;;;;;3.25;2.38;;;22.80;44.80;;;;;;5114817;28;20124;-77
2021/09/10 00:41:26;;;;;;;5.93;2.30;;;22.60;49.90;;;;;;5117414;28;20024;-69
2021/09/10 00:43:54;;;;;;;3.85;2.58;;;22.50;48.00;;;;;;5100831;28;20484;-76
2021/09/10 00:46:22;;;;;;;3.65;2.20;;;22.40;51.50;;;;;;5115639;28;20665;-70
2021/09/10 00:48:50;;;;;;;7.43;2.28;;;22.40;48.40;;;;;;5114918;28;20068;-70
2021/09/10 00:51:19;;;;;;;4.70;1.92;;;22.50;48.40;;;;;;5097693;28;20031;-66
2021/09/10 00:53:51;;;;;;;2.85;1.75;;;22.40;48.70;;;;;;5109930;28;20035;-70
2021/09/10 00:56:47;;;;;;;5.93;2.30;;;22.50;48.40;;;;;;5111069;28;20068;-66
2021/09/10 00:59:14;;;;;;;3.13;2.30;;;22.50;50.90;;;;;;5082788;28;20031;-70
2021/09/10 01:01:43;;;;;;;4.32;2.08;;;22.40;50.90;;;;;;5109062;28;20462;-66
2021/09/10 01:04:10;;;;;;;6.15;2.28;;;22.60;52.40;;;;;;5109071;28;20038;-68
2021/09/10 01:06:38;;;;;;;3.30;2.10;;;22.60;52.90;;;;;;5109273;28;20034;-65
2021/09/10 01:09:07;;;;;;;3.67;2.33;;;22.60;53.30;;;;;;5109773;28;20020;-74
2021/09/10 01:11:35;;;;;;;6.65;2.67;;;22.50;52.70;;;;;;5109676;28;20390;-67
2021/09/10 01:14:03;;;;;;;10.38;2.60;;;22.50;53.50;;;;;;5109199;28;20046;-71
2021/09/10 01:16:34;;;;;;;8.90;2.20;;;22.40;53.60;;;;;;5110168;28;20032;-75
2021/09/10 01:19:04;;;;;;;5.00;2.15;;;22.40;53.50;;;;;;5110366;28;20024;-73
2021/09/10 01:21:32;;;;;;;4.93;2.15;;;22.40;54.20;;;;;;5088665;28;20378;-70
2021/09/10 01:24:00;;;;;;;6.60;2.28;;;22.20;53.90;;;;;;5089414;28;20471;-62
2021/09/10 01:26:28;;;;;;;8.43;2.10;;;22.10;54.30;;;;;;5089475;28;20028;-68
2021/09/10 01:28:55;;;;;;;7.40;1.98;;;22.10;55.40;;;;;;5071312;28;20028;-75
2021/09/10 01:31:22;;;;;;;8.73;3.25;;;22.00;56.00;;;;;;5089187;28;20417;-71
2021/09/10 01:33:50;;;;;;;7.40;2.88;;;21.90;55.60;;;;;;5088879;28;20040;-74
2021/09/10 01:36:21;;;;;;;14.88;4.15;;;21.90;57.80;;;;;;5088201;28;20008;-64
2021/09/10 01:38:49;;;;;;;9.15;3.35;;;22.10;59.70;;;;;;5089317;28;20031;-68
2021/09/10 01:41:20;;;;;;;19.35;4.75;;;22.20;58.50;;;;;;5090459;28;20009;-60
2021/09/10 01:43:54;;;;;;;12.27;4.20;;;22.30;61.20;;;;;;5054890;28;20055;-61
2021/09/10 01:46:21;;;;;;;9.40;4.00;;;22.40;60.10;;;;;;5089110;28;20432;-72
2021/09/10 01:48:50;;;;;;;14.05;4.00;;;22.20;59.50;;;;;;5088544;28;20049;-67
2021/09/10 01:51:17;;;;;;;13.90;4.15;;;22.00;59.70;;;;;;5088759;28;20031;-74
2021/09/10 01:53:46;;;;;;;16.30;3.78;;;21.90;59.30;;;;;;5088955;28;20032;-72
2021/09/10 01:56:20;;;;;;;16.17;4.47;;;21.80;60.00;;;;;;5089583;28;20027;-71
2021/09/10 01:58:54;;;;;;;16.55;4.25;;;21.80;59.70;;;;;;5089207;28;20658;-74
2021/09/10 02:01:26;;;;;;;11.00;4.00;;;21.70;59.70;;;;;;5089559;28;20023;-72
2021/09/10 02:04:00;;;;;;;11.02;3.75;;;21.60;60.10;;;;;;5088585;28;20502;-73
2021/09/10 02:06:28;;;;;;;7.95;3.33;;;21.60;60.80;;;;;;5088123;28;20078;-75
2021/09/10 02:08:55;;;;;;;17.67;4.53;;;21.60;60.20;;;;;;5088674;28;20040;-63
2021/09/10 02:11:51;;;;;;;13.63;4.22;;;21.50;60.20;;;;;;5088845;28;20040;-66
2021/09/10 02:14:19;;;;;;;11.50;4.28;;;21.40;60.60;;;;;;5086615;28;20115;-71
2021/09/10 02:16:47;;;;;;;14.25;3.63;;;21.40;61.00;;;;;;5088446;28;20089;-67
2021/09/10 02:19:14;;;;;;;17.75;3.97;;;21.30;62.50;;;;;;5088732;28;20060;-62
2021/09/10 02:21:45;;;;;;;14.05;4.32;;;21.30;61.40;;;;;;5088955;28;20101;-74
2021/09/10 02:24:23;;;;;;;10.60;3.13;;;21.20;61.30;;;;;;5090259;28;20055;-71
2021/09/10 02:26:54;;;;;;;14.80;3.90;;;21.20;61.50;;;;;;5089451;28;20020;-69
2021/09/10 02:29:22;;;;;;;8.05;3.30;;;21.10;62.30;;;;;;5088834;28;20492;-68
2021/09/10 02:32:05;;;;;;;11.43;3.47;;;21.10;62.70;;;;;;5088639;28;20031;-71
2021/09/10 02:34:32;;;;;;;8.95;3.75;;;21.10;62.80;;;;;;5087769;28;20027;-69
2021/09/10 02:37:00;;;;;;;14.73;3.75;;;21.00;62.40;;;;;;5088758;28;20032;-70
2021/09/10 02:39:46;;;;;;;14.20;3.88;;;21.00;62.50;;;;;;5088626;28;20114;-67
2021/09/10 02:42:14;;;;;;;9.35;3.40;;;21.00;63.80;;;;;;5088932;28;20051;-74
2021/09/10 02:44:42;;;;;;;15.13;3.85;;;21.00;63.40;;;;;;5098433;28;20098;-70
2021/09/10 02:47:09;;;;;;;10.65;3.45;;;21.00;63.30;;;;;;5091062;28;20023;-70
2021/09/10 02:49:37;;;;;;;11.43;4.05;;;20.90;63.80;;;;;;5110874;28;20023;-70
2021/09/10 02:52:04;;;;;;;11.63;3.50;;;21.00;64.80;;;;;;5110902;28;20064;-70
2021/09/10 02:54:32;;;;;;;10.30;3.42;;;21.00;63.70;;;;;;5112504;28;20431;-72
2021/09/10 02:57:00;;;;;;;13.23;4.07;;;21.00;63.60;;;;;;5077569;28;20024;-65
2021/09/10 02:59:27;;;;;;;14.25;3.95;;;21.00;64.50;;;;;;5111569;28;20534;-66
2021/09/10 03:04:59;;;;;;;10.98;4.00;;;21.00;64.30;;;;;;5074102;28;20114;-58
2021/09/10 03:07:37;;;;;;;14.32;4.20;;;20.90;63.40;;;;;;5111992;28;20133;-59
2021/09/10 03:10:06;;;;;;;8.45;3.40;;;20.90;64.10;;;;;;5111646;28;20035;-67
2021/09/10 03:12:44;;;;;;;9.38;3.47;;;21.00;63.80;;;;;;5079346;28;20381;-67
2021/09/10 03:15:13;;;;;;;17.23;4.25;;;21.00;64.00;;;;;;5106807;28;20513;-64
2021/09/10 03:17:41;;;;;;;9.75;3.70;;;21.00;64.20;;;;;;5110420;28;20016;-64
2021/09/10 03:20:10;;;;;;;12.18;4.13;;;21.10;63.60;;;;;;5091500;28;20023;-65
2021/09/10 03:22:40;;;;;;;12.50;3.35;;;21.10;63.50;;;;;;5104389;27;20079;-71
2021/09/10 03:25:09;;;;;;;13.10;3.80;;;21.20;63.30;;;;;;5084511;28;20024;-65
2021/09/10 03:27:36;;;;;;;14.50;4.03;;;21.20;64.10;;;;;;5105955;28;20016;-70
2021/09/10 03:30:08;;;;;;;12.38;3.45;;;21.20;63.10;;;;;;5107750;28;20052;-71
2021/09/10 03:32:35;;;;;;;;;;;21.20;62.90;;;;;;5106791;28;20088;-71
2021/09/10 03:35:09;;;;;;;12.90;3.60;;;21.30;63.20;;;;;;5105735;28;20003;-63
2021/09/10 03:37:36;;;;;;;10.15;3.65;;;21.30;63.60;;;;;;5106687;28;20452;-69
2021/09/10 03:40:10;;;;;;;12.13;3.80;;;21.30;63.00;;;;;;5104991;28;20120;-73
2021/09/10 03:42:38;;;;;;;10.77;4.30;;;21.40;63.10;;;;;;5106810;28;20044;-66
2021/09/10 03:45:12;;;;;;;8.98;3.33;;;21.40;63.60;;;;;;5101826;28;20060;-57
2021/09/10 03:47:40;;;;;;;10.82;3.30;;;21.40;63.30;;;;;;5109339;28;20417;-58
2021/09/10 03:50:08;;;;;;;9.43;3.20;;;21.40;63.80;;;;;;5106671;28;20027;-68
2021/09/10 03:52:35;;;;;;;15.35;3.67;;;21.40;63.10;;;;;;5105642;28;20812;-66
2021/09/10 03:55:03;;;;;;;13.23;4.00;;;21.40;63.50;;;;;;5104330;28;20103;-66
2021/09/10 03:57:44;;;;;;;13.60;4.15;;;21.40;65.00;;;;;;5091559;28;20029;-64
2021/09/10 04:00:12;;;;;;;10.77;3.63;;;21.50;63.40;;;;;;5110283;27;20074;-63
2021/09/10 04:02:40;;;;;;;13.43;4.10;;;21.50;63.00;;;;;;5109270;28;20367;-70
2021/09/10 04:05:08;;;;;;;11.93;3.67;;;21.50;63.40;;;;;;5105200;28;20767;-66
2021/09/10 04:07:38;;;;;;;11.38;3.00;;;21.50;64.00;;;;;;5108980;28;20028;-65
2021/09/10 04:10:19;;;;;;;9.68;3.47;;;21.60;63.70;;;;;;5101129;28;20028;-64
2021/09/10 04:12:57;;;;;;;11.90;3.55;;;21.60;63.40;;;;;;5109151;28;20102;-69
2021/09/10 04:15:26;;;;;;;16.63;4.60;;;21.60;64.80;;;;;;5098710;28;20583;-64
2021/09/10 04:17:54;;;;;;;13.98;4.13;;;21.60;64.00;;;;;;5109078;28;20035;-60
2021/09/10 04:20:22;;;;;;;16.92;4.53;;;21.70;63.40;;;;;;5106773;28;20039;-63
2021/09/10 04:22:49;;;;;;;12.70;3.47;;;21.60;63.80;;;;;;5107057;28;20039;-63
2021/09/10 04:25:23;;;;;;;12.15;3.88;;;21.60;63.60;;;;;;5085010;28;20028;-70
2021/09/10 04:27:50;;;;;;;10.00;3.65;;;21.60;63.70;;;;;;5106223;28;20020;-68
2021/09/10 04:30:18;;;;;;;12.20;4.13;;;21.60;64.10;;;;;;5091119;28;20051;-66
2021/09/10 04:32:46;;;;;;;13.05;4.05;;;21.60;63.80;;;;;;5108437;28;20036;-65
2021/09/10 04:35:14;;;;;;;10.40;3.20;;;21.60;64.10;;;;;;5100675;28;20085;-68
2021/09/10 04:37:43;;;;;;;11.32;4.00;;;21.50;64.00;;;;;;5088771;28;20050;-70
2021/09/10 04:40:11;;;;;;;12.70;4.38;;;21.60;65.00;;;;;;5087770;28;20060;-67
2021/09/10 04:42:39;;;;;;;13.43;4.15;;;21.60;64.60;;;;;;5105952;28;20128;-68
2021/09/10 04:45:36;;;;;;;13.70;4.50;;;21.60;64.50;;;;;;5104895;28;20063;-70
2021/09/10 04:48:03;;;;;;;11.70;4.15;;;21.60;65.00;;;;;;5101570;28;20547;-64
2021/09/10 04:50:31;;;;;;;13.63;4.45;;;21.60;64.80;;;;;;5109419;28;20023;-72
2021/09/10 04:53:14;;;;;;;9.32;3.88;;;21.60;65.10;;;;;;5109998;28;20045;-63
2021/09/10 04:55:41;;;;;;;12.27;3.35;;;21.50;65.90;;;;;;5111607;27;20132;-71
2021/09/10 04:58:09;;;;;;;12.13;4.30;;;21.40;64.90;;;;;;5090600;28;20445;-70
2021/09/10 05:00:36;;;;;;;13.45;4.78;;;21.40;65.50;;;;;;5109681;28;20435;-67
2021/09/10 05:03:04;;;;;;;11.63;3.78;;;21.40;65.50;;;;;;5110922;28;20054;-64
2021/09/10 05:05:31;;;;;;;17.00;4.60;;;21.30;65.70;;;;;;5110703;28;20027;-72
2021/09/10 05:07:59;;;;;;;18.95;4.18;;;21.30;66.40;;;;;;5109333;28;20085;-66
2021/09/10 05:10:26;;;;;;;18.73;4.95;;;21.30;65.90;;;;;;5109197;28;20024;-70
2021/09/10 05:12:53;;;;;;;12.52;3.95;;;21.20;66.90;;;;;;5109533;28;20035;-70
2021/09/10 05:15:21;;;;;;;16.73;5.47;;;21.20;66.60;;;;;;5109746;28;20019;-64
2021/09/10 05:17:48;;;;;;;14.43;4.30;;;21.20;67.70;;;;;;5111020;28;20026;-67
2021/09/10 05:20:16;;;;;;;15.63;4.22;;;21.20;67.30;;;;;;5109348;28;20023;-68
2021/09/10 05:22:43;;;;;;;14.63;4.38;;;21.20;67.50;;;;;;5090657;28;20049;-69
2021/09/10 05:25:11;;;;;;;12.27;3.47;;;21.20;67.60;;;;;;5109395;28;20034;-68
2021/09/10 05:27:39;;;;;;;10.15;3.72;;;21.20;66.70;;;;;;5109266;28;20377;-65
2021/09/10 05:30:06;;;;;;;14.75;4.38;;;21.30;66.60;;;;;;5109528;28;20025;-68
2021/09/10 05:32:34;;;;;;;13.93;4.03;;;21.30;67.00;;;;;;5108565;28;20623;-66
2021/09/10 05:35:01;;;;;;;13.73;4.90;;;21.30;66.60;;;;;;5090728;28;20100;-68
2021/09/10 05:37:29;;;;;;;12.60;4.10;;;21.30;66.70;;;;;;5109387;28;20057;-68
2021/09/10 05:39:56;;;;;;;14.85;4.63;;;21.30;66.40;;;;;;5109007;28;20470;-62
2021/09/10 05:42:23;;;;;;;13.25;3.75;;;21.40;67.50;;;;;;5108761;28;20056;-70
2021/09/10 05:44:51;;;;;;;14.68;4.63;;;21.40;66.20;;;;;;5109199;28;20102;-69
2021/09/10 05:47:18;;;;;;;17.38;5.20;;;21.50;67.50;;;;;;5108625;28;20016;-69
2021/09/10 05:49:46;;;;;;;12.55;4.07;;;21.50;67.10;;;;;;5091500;28;20095;-68
2021/09/10 05:52:13;;;;;;;10.80;3.42;;;21.50;66.00;;;;;;5113373;28;20089;-71
2021/09/10 05:54:57;;;;;;;13.43;4.07;;;21.50;66.20;;;;;;5110993;28;20036;-66
2021/09/10 05:57:24;;;;;;;13.80;4.40;;;21.50;66.40;;;;;;5109563;28;20026;-71
2021/09/10 05:59:52;;;;;;;12.63;3.97;;;21.50;65.80;;;;;;5109437;28;20077;-77
2021/09/10 06:02:21;;;;;;;12.93;3.92;;;21.50;65.70;;;;;;5109633;28;20023;-67
2021/09/10 06:04:48;;;;;;;15.07;4.93;;;21.50;65.70;;;;;;5110279;28;20036;-74
2021/09/10 06:07:16;;;;;;;12.95;4.30;;;21.50;66.00;;;;;;5109520;28;20023;-71
2021/09/10 06:09:44;;;;;;;12.68;3.78;;;21.50;66.20;;;;;;5110026;28;20103;-72
2021/09/10 06:12:11;;;;;;;12.48;4.22;;;21.50;66.10;;;;;;5109141;28;20035;-71
2021/09/10 06:14:39;;;;;;;10.38;4.10;;;21.40;66.70;;;;;;5107705;28;20125;-73
2021/09/10 06:17:06;;;;;;;11.38;4.20;;;21.40;66.20;;;;;;5108902;28;20016;-75
2021/09/10 06:19:34;;;;;;;13.90;3.88;;;21.40;66.50;;;;;;5091054;28;20020;-68
2021/09/10 06:22:01;;;;;;;14.02;4.60;;;21.30;66.50;;;;;;5108911;28;20414;-71
2021/09/10 06:24:29;;;;;;;10.68;3.83;;;21.30;66.80;;;;;;5108977;28;20161;-74
2021/09/10 06:26:56;;;;;;;12.40;3.75;;;21.20;67.00;;;;;;5111626;28;20482;-73
2021/09/10 06:29:24;;;;;;;11.98;4.03;;;21.10;67.00;;;;;;5112988;28;20023;-73
2021/09/10 06:31:52;;;;;;;12.68;3.83;;;21.10;67.20;;;;;;5113347;27;20059;-72
2021/09/10 06:34:23;;;;;;;12.77;3.83;;;21.00;67.50;;;;;;5113369;28;20032;-76
2021/09/10 06:36:51;;;;;;;15.73;4.30;;;21.00;67.60;;;;;;5114942;28;20015;-70
2021/09/10 06:39:18;;;;;;;11.77;4.22;;;20.90;68.20;;;;;;5113514;28;20027;-72
2021/09/10 06:41:46;;;;;;;10.13;3.10;;;20.90;68.00;;;;;;5114792;28;20381;-68
2021/09/10 06:44:14;;;;;;;11.05;4.35;;;20.80;68.30;;;;;;5114856;28;20016;-72
2021/09/10 06:46:41;;;;;;;10.95;3.60;;;20.80;68.80;;;;;;5115911;28;20023;-70
2021/09/10 06:49:09;;;;;;;12.98;4.35;;;20.80;69.00;;;;;;5114220;28;20454;-69
2021/09/10 06:51:37;;;;;;;16.42;4.38;;;20.70;69.00;;;;;;5112400;28;20126;-69
2021/09/10 06:54:04;;;;;;;8.00;3.47;;;20.70;68.90;;;;;;5113495;28;20031;-71
2021/09/10 06:56:31;;;;;;;12.65;3.95;;;20.70;69.20;;;;;;5112532;28;20461;-65
2021/09/10 06:58:59;;;;;;;14.23;4.57;;;20.60;69.30;;;;;;5112797;28;20051;-73
2021/09/10 07:01:27;;;;;;;13.60;4.53;;;20.60;69.40;;;;;;5114487;28;20062;-72
2021/09/10 07:03:54;;;;;;;13.07;4.10;;;20.60;70.10;;;;;;5113628;28;20027;-72
2021/09/10 07:06:22;;;;;;;11.60;4.50;;;20.60;70.30;;;;;;5114102;28;20022;-75
2021/09/10 07:08:55;;;;;;;14.23;3.97;;;20.60;70.20;;;;;;5113471;28;20366;-67
2021/09/10 07:11:23;;;;;;;11.38;3.55;;;20.60;69.90;;;;;;5114536;28;20042;-73
2021/09/10 07:13:50;;;;;;;15.38;5.22;;;20.50;70.80;;;;;;5115242;28;20062;-76
2021/09/10 07:16:17;;;;;;;12.65;3.83;;;20.50;70.20;;;;;;5115544;28;20030;-76
2021/09/10 07:18:45;;;;;;;13.10;4.25;;;20.50;70.50;;;;;;5116072;28;20044;-77
2021/09/10 07:21:12;;;;;;;14.77;4.47;;;20.40;70.20;;;;;;5114626;28;20043;-74
2021/09/10 07:23:40;;;;;;;13.05;4.47;;;20.40;71.10;;;;;;5114512;28;20062;-74
2021/09/10 07:26:07;;;;;;;14.15;4.40;;;20.40;70.40;;;;;;5114301;28;20378;-75
2021/09/10 07:28:36;;;;;;;14.27;4.47;;;20.40;71.40;;;;;;5113464;28;20383;-71
2021/09/10 07:31:05;;;;;;;11.45;3.88;;;20.30;70.90;;;;;;5112535;28;20028;-74
2021/09/10 07:33:36;;;;;;;15.50;4.88;;;20.30;70.70;;;;;;5113097;28;20055;-73
2021/09/10 07:36:04;;;;;;;12.97;3.67;;;20.30;71.20;;;;;;5114003;28;20055;-68
2021/09/10 07:38:32;;;;;;;11.38;4.00;;;20.20;71.20;;;;;;5113734;28;20602;-73
2021/09/10 07:41:00;;;;;;;14.98;4.47;;;20.20;71.20;;;;;;5116773;28;20608;-75
2021/09/10 07:43:28;;;;;;;10.88;4.10;;;20.10;71.60;;;;;;5114825;28;20154;-73
2021/09/10 07:45:59;;;;;;;12.77;4.28;;;20.10;71.60;;;;;;5114682;28;20043;-70
2021/09/10 07:48:27;;;;;;;13.05;4.47;;;20.10;72.00;;;;;;5095104;28;20047;-72
2021/09/10 07:50:54;;;;;;;12.82;4.40;;;20.10;72.40;;;;;;5074616;28;20118;-73
2021/09/10 07:53:21;;;;;;;13.02;4.13;;;20.00;71.90;;;;;;5091348;28;20513;-72
2021/09/10 07:55:49;;;;;;;11.80;4.03;;;20.00;72.30;;;;;;5091212;28;20383;-74
2021/09/10 07:58:16;;;;;;;15.00;4.90;;;20.00;72.20;;;;;;5091197;28;20016;-73
2021/09/10 08:00:44;;;;;;;12.30;4.55;;;20.00;72.50;;;;;;5091282;28;20042;-75
2021/09/10 08:03:11;;;;;;;14.40;4.53;;;19.90;72.30;;;;;;5090836;28;20651;-71
2021/09/10 08:05:40;;;;;;;10.73;3.88;;;19.90;72.60;;;;;;5090921;28;20030;-76
2021/09/10 08:08:07;;;;;;;13.57;3.97;;;19.90;72.70;;;;;;5091221;28;20021;-70
2021/09/10 08:10:35;;;;;;;11.93;3.75;;;19.90;73.00;;;;;;5090755;28;20054;-67
2021/09/10 08:13:02;;;;;;;15.23;4.40;;;19.90;73.00;;;;;;5091855;28;20430;-67
2021/09/10 08:15:30;;;;;;;12.07;4.05;;;19.80;72.70;;;;;;5090046;28;20020;-69
2021/09/10 08:17:57;;;;;;;13.45;4.38;;;19.80;72.90;;;;;;5091448;28;20012;-70
2021/09/10 08:20:25;;;;;;;17.33;4.35;;;19.80;73.10;;;;;;5091305;28;20031;-74
2021/09/10 08:22:52;;;;;;;19.17;4.72;;;19.80;74.10;;;;;;5092281;28;20028;-72
2021/09/10 08:25:20;;;;;;;15.88;5.00;;;19.80;74.10;;;;;;5092478;28;20016;-71
2021/09/10 08:27:47;;;;;;;13.63;4.60;;;19.80;73.60;;;;;;5091499;28;20080;-73
2021/09/10 08:30:15;;;;;;;18.63;5.53;;;19.70;73.10;;;;;;5071719;28;20375;-69
2021/09/10 08:32:42;;;;;;;16.98;5.53;;;19.70;73.30;;;;;;5090534;28;20036;-76
2021/09/10 08:35:10;;;;;;;21.08;6.60;;;19.70;74.30;;;;;;5072418;28;20024;-68
2021/09/10 08:37:38;;;;;;;24.00;7.85;;;19.70;73.50;;;;;;5089942;28;20020;-70
2021/09/10 08:40:06;;;;;;;20.08;6.13;;;19.70;74.90;;;;;;5090129;28;20032;-68
2021/09/10 08:42:33;;;;;;;15.00;5.60;;;19.70;74.20;;;;;;5083485;28;20067;-65
2021/09/10 08:45:03;;;;;;;20.05;5.93;;;19.70;74.30;;;;;;5106219;28;20032;-68
2021/09/10 08:47:32;;;;;;;20.13;7.97;;;19.70;73.90;;;;;;5096454;28;20028;-68
2021/09/10 08:49:59;;;;;;;36.00;9.18;;;19.70;73.60;;;;;;5101776;28;20454;-73
2021/09/10 08:52:27;;;;;;;25.85;8.60;;;19.70;73.80;;;;;;5101764;28;20055;-67
2021/09/10 08:54:54;;;;;;;30.10;10.85;;;19.70;73.90;;;;;;5106234;28;20448;-62
2021/09/10 08:57:23;;;;;;;26.65;9.05;;;19.70;73.80;;;;;;5095663;27;20043;-65
2021/09/10 09:00:04;;;;;;;31.15;9.88;;;19.70;73.80;;;;;;5084947;28;21495;-71
2021/09/10 09:02:31;;;;;;;30.70;10.15;;;19.70;73.80;;;;;;5101432;28;20600;-66
2021/09/10 09:04:59;;;;;;;27.55;8.50;;;19.70;74.00;;;;;;5103778;28;20020;-62
2021/09/10 09:07:28;;;;;;;33.42;10.90;;;19.70;74.20;;;;;;5098101;28;20066;-66
2021/09/10 09:09:59;;;;;;;27.85;9.65;;;19.70;74.20;;;;;;5101180;28;20027;-66
2021/09/10 09:12:31;;;;;;;28.58;9.90;;;19.70;74.20;;;;;;5096500;28;20040;-71
2021/09/10 09:15:00;;;;;;;;;;;19.70;74.40;;;;;;5104654;28;20028;-65
2021/09/10 09:17:32;;;;;;;28.35;10.43;;;19.70;74.30;;;;;;5084151;28;19911;-70
2021/09/10 09:20:19;;;;;;;29.17;9.65;;;19.70;74.20;;;;;;5107786;28;20019;-66
2021/09/10 09:22:55;;;;;;;30.73;9.80;;;19.70;74.20;;;;;;5102852;28;20026;-68
2021/09/10 09:25:45;;;;;;;29.23;9.63;;;19.70;74.30;;;;;;5100951;28;20042;-65
2021/09/10 09:28:32;;;;;;;28.52;9.48;;;19.70;74.20;;;;;;5082214;28;20091;-73
2021/09/10 09:31:04;;;;;;;24.75;8.65;;;19.70;74.30;;;;;;5106975;28;20056;-69
2021/09/10 09:33:35;;;;;;;26.15;9.30;;;19.70;74.00;;;;;;5105999;28;20506;-69
2021/09/10 09:36:03;;;;;;;27.05;9.90;;;19.70;74.40;;;;;;5107229;28;20236;-70
2021/09/10 09:38:34;;;;;;;26.02;9.80;;;19.60;74.60;;;;;;5101721;28;20501;-71
2021/09/10 09:41:07;;;;;;;32.15;10.27;;;19.60;74.20;;;;;;5107985;28;20369;-69
2021/09/10 09:43:36;;;;;;;23.90;9.32;;;19.60;74.20;;;;;;5106363;28;20067;-69
2021/09/10 09:46:08;;;;;;;26.75;8.88;;;19.60;74.70;;;;;;5106928;28;20102;-70
2021/09/10 09:48:41;;;;;;;26.02;8.75;;;19.60;75.00;;;;;;5101105;28;20023;-70
2021/09/10 09:51:15;;;;;;;25.45;8.82;;;19.60;74.90;;;;;;5107841;28;20026;-70
2021/09/10 09:53:44;;;;;;;28.80;9.10;;;19.60;74.80;;;;;;5103244;28;20032;-67
2021/09/10 09:56:12;;;;;;;28.60;9.23;;;19.60;74.90;;;;;;5108588;28;20031;-62
2021/09/10 09:58:42;;;;;;;26.17;9.70;;;19.60;74.90;;;;;;5079709;28;20110;-72
2021/09/10 10:01:13;;;;;;;25.73;8.80;;;19.60;75.00;;;;;;5110291;28;20164;-65
2021/09/10 10:03:41;;;;;;;26.38;9.77;;;19.50;75.00;;;;;;5108833;28;20019;-68
2021/09/10 10:06:27;;;;;;;23.58;8.70;;;19.50;74.80;;;;;;5110504;28;20096;-65
2021/09/10 10:09:20;;;;;;;28.88;8.45;;;19.50;75.40;;;;;;5100887;28;20055;-68
2021/09/10 10:11:50;;;;;;;26.42;8.43;;;19.50;75.10;;;;;;5110235;28;20082;-63
2021/09/10 10:14:43;;;;;;;20.73;8.40;;;19.50;75.10;;;;;;5108669;28;20020;-65
2021/09/10 10:17:31;;;;;;;24.85;8.88;;;19.50;75.50;;;;;;5105000;28;20428;-66
2021/09/10 10:19:59;;;;;;;24.45;9.27;;;19.50;75.40;;;;;;5108903;28;20019;-65
2021/09/10 10:22:42;;;;;;;22.67;7.28;;;19.50;75.50;;;;;;5090574;28;20490;-60
2021/09/10 10:25:11;;;;;;;28.70;8.95;;;19.50;75.40;;;;;;5111074;28;20071;-64
2021/09/10 10:27:43;;;;;;;22.85;8.57;;;19.40;75.50;;;;;;5104048;28;20032;-62
2021/09/10 10:30:20;;;;;;;22.45;7.68;;;19.40;75.70;;;;;;5110861;27;20031;-63
2021/09/10 10:32:50;;;;;;;24.23;7.95;;;19.40;75.60;;;;;;5108558;28;20059;-67
2021/09/10 10:35:35;;;;;;;23.10;8.07;;;19.40;75.50;;;;;;5110356;28;20035;-60
2021/09/10 10:38:10;;;;;;;20.90;7.75;;;19.40;75.80;;;;;;5100229;27;20027;-64
2021/09/10 10:40:44;;;;;;;19.90;7.20;;;19.40;75.60;;;;;;5102897;28;20445;-65
2021/09/10 10:43:40;;;;;;;23.73;7.97;;;19.40;75.60;;;;;;5088725;28;20505;-63
2021/09/10 10:46:36;;;;;;;20.83;8.02;;;19.40;75.80;;;;;;5097834;28;20035;-69
2021/09/10 10:49:26;;;;;;;25.42;8.48;;;19.40;75.70;;;;;;5099151;28;20024;-64
2021/09/10 10:51:54;;;;;;;20.52;6.97;;;19.30;75.80;;;;;;5105056;28;20027;-66
2021/09/10 10:54:30;;;;;;;23.02;7.82;;;19.30;75.60;;;;;;5110906;27;20496;-67
2021/09/10 10:56:59;;;;;;;20.60;7.07;;;19.30;75.80;;;;;;5103531;28;20028;-64
2021/09/10 10:59:26;;;;;;;24.52;7.97;;;19.40;76.00;;;;;;5106642;28;20028;-63
2021/09/10 11:02:21;;;;;;;16.95;7.50;;;19.30;76.10;;;;;;5091723;28;20004;-69
2021/09/10 11:04:50;;;;;;;20.35;7.38;;;19.30;75.90;;;;;;5109387;28;21464;-62
2021/09/10 11:07:44;;;;;;;20.13;7.15;;;19.30;76.20;;;;;;5110232;28;20470;-70
2021/09/10 11:10:16;;;;;;;17.52;7.18;;;19.30;76.00;;;;;;5097670;28;20039;-65
2021/09/10 11:12:49;;;;;;;18.08;6.82;;;19.30;75.90;;;;;;5108382;28;20028;-68
2021/09/10 11:15:55;;;;;;;16.85;6.32;;;19.30;76.30;;;;;;5106322;28;20394;-68
2021/09/10 11:18:27;;;;;;;19.73;7.13;;;19.30;76.20;;;;;;5051309;28;20096;-69
2021/09/10 11:20:55;;;;;;;14.40;5.93;;;19.30;76.00;;;;;;5088821;28;20223;-63
2021/09/10 11:23:52;;;;;;;17.02;6.72;;;19.30;76.00;;;;;;5109278;27;20028;-66
2021/09/10 11:26:39;;;;;;;19.00;6.60;;;19.20;75.90;;;;;;5110843;28;20184;-65
2021/09/10 11:29:10;;;;;;;23.30;7.75;;;19.20;76.00;;;;;;5100995;28;20056;-63
2021/09/10 11:31:47;;;;;;;17.90;6.97;;;19.20;76.10;;;;;;5111054;28;20055;-68
2021/09/10 11:34:35;;;;;;;24.38;7.28;;;19.20;76.20;;;;;;5107676;28;20027;-72
2021/09/10 11:37:12;;;;;;;16.20;6.43;;;19.20;75.80;;;;;;5108577;28;20019;-73
2021/09/10 11:39:56;;;;;;;17.98;6.53;;;19.10;75.70;;;;;;5097880;28;20012;-65
2021/09/10 11:42:40;;;;;;;15.77;6.63;;;19.10;75.70;;;;;;5095053;28;20123;-67
2021/09/10 11:45:51;;;;;;;18.88;6.35;;;19.10;75.90;;;;;;5091437;28;20038;-67
2021/09/10 11:48:33;;;;;;;15.95;6.25;;;19.10;76.40;;;;;;5054304;28;20024;-68
2021/09/10 11:51:07;;;;;;;18.42;7.57;;;19.10;75.90;;;;;;5091348;28;20028;-66
2021/09/10 11:53:53;;;;;;;18.35;6.72;;;19.00;76.40;;;;;;5092077;28;20051;-65
2021/09/10 11:56:31;;;;;;;19.77;6.63;;;19.00;76.10;;;;;;5072669;28;20024;-64
2021/09/10 11:58:59;;;;;;;20.90;7.50;;;19.00;76.30;;;;;;5072022;28;20028;-70
2021/09/10 12:01:43;;;;;;;24.83;6.68;;;19.00;77.30;;;;;;5093583;28;20050;-63
2021/09/10 12:04:54;;;;;;;19.27;7.00;;;19.00;76.40;;;;;;5109540;28;20055;-66
2021/09/10 12:07:28;;;;;;;14.18;5.82;;;19.00;76.30;;;;;;5011271;28;20026;-64
2021/09/10 12:10:09;;;;;;;21.20;6.38;;;18.90;76.10;;;;;;5011482;28;20092;-66
2021/09/10 12:12:37;;;;;;;;;;;18.90;76.10;;;;;;4994843;28;20033;-68
2021/09/10 12:15:05;;;;;;;15.98;5.82;;;18.90;76.10;;;;;;5031178;28;19962;-67
2021/09/10 12:17:48;;;;;;;15.70;5.60;;;18.90;76.30;;;;;;5112228;28;20367;-75
2021/09/10 12:20:17;;;;;;;19.67;6.65;;;18.90;76.60;;;;;;5113338;28;20461;-66
2021/09/10 12:25:27;;;;;;;15.13;6.25;;;18.80;76.20;;;;;;5109348;28;20028;-71
2021/09/10 12:28:17;;;;;;;15.07;5.90;;;18.80;76.30;;;;;;5110705;28;20016;-69
2021/09/10 12:30:48;;;;;;;14.27;5.72;;;18.80;76.20;;;;;;5110443;28;20064;-73
2021/09/10 12:33:44;;;;;;;18.60;6.93;;;18.80;76.30;;;;;;5098006;28;20032;-68
2021/09/10 12:36:11;;;;;;;19.10;7.03;;;18.80;76.20;;;;;;5106340;28;20537;-68
2021/09/10 12:38:52;;;;;;;13.63;5.43;;;18.80;76.30;;;;;;5105322;28;20454;-65
2021/09/10 12:41:19;;;;;;;14.95;5.28;;;18.70;76.20;;;;;;5086116;28;20122;-72
2021/09/10 12:43:57;;;;;;;12.73;5.53;;;18.70;76.40;;;;;;5090104;28;20051;-71
2021/09/10 12:46:35;;;;;;;13.23;5.35;;;18.70;76.50;;;;;;5108957;28;20020;-71
2021/09/10 12:49:06;;;;;;;16.10;5.63;;;18.70;76.50;;;;;;5111481;28;20023;-61
2021/09/10 12:51:34;;;;;;;14.63;5.53;;;18.70;76.60;;;;;;5100064;28;20020;-66
2021/09/10 12:54:05;;;;;;;15.70;6.28;;;18.60;77.00;;;;;;5105413;28;20035;-62
2021/09/10 12:56:46;;;;;;;14.95;6.05;;;18.60;76.60;;;;;;5109835;28;20024;-62
2021/09/10 12:59:17;;;;;;;16.55;6.15;;;18.70;76.70;;;;;;5100124;28;20024;-66
2021/09/10 13:01:44;;;;;;;16.00;5.47;;;18.70;76.80;;;;;;5106183;27;20148;-70
2021/09/10 13:04:12;;;;;;;15.23;5.80;;;18.60;76.70;;;;;;5107538;28;20077;-66
2021/09/10 13:06:47;;;;;;;13.65;5.70;;;18.60;77.40;;;;;;5105503;28;20035;-69